Terminal Aerodrome Forecast
Issued by NWS

Home | Current Version | Previous Version | Text Only | Print | Product List | Glossary On
Versions: 1 2 3 4 5 6 7 8 9 10 11 12 13 14 15 16 17 18 19 20 21 22
000
FTUS44 KTSA 170500
TAFBVO
TAF
KBVO 170520Z 1706/1806 00000KT 6SM BR SKC
     FM170800 18002KT 2SM BR OVC015
     FM171200 20005KT 5SM BR SCT250
     FM171300 20007KT P6SM SCT250
     FM180000 17003KT P6SM BKN250 PROB30 1800/1806 3SM TSRA
      BKN050CB=

USA.gov is the U.S. government's official web portal to all federal, state and local government web resources and services.